Taulbee, Kentucky
Current Conditions -  °F | °C
As of 11:53 AM on Saturday 25 Oct 2014 (Local Time) from KJKL Reporting Station
Overcast Overcast  
Wind Chill: 57°   Ceiling: 6000
Heat Index: 57°   Visibility: 10mi
Dew Point: 46°   Wind: 3mph
Humidity: 67%   Direction: NA
Pressure: 30.07"   Gusts: NA
Location:  37.6425°N, 83.3516°W
Report Text: KJKL 251553Z AUTO VRB03KT 10SM OVC060 14/08 A3007 RMK AO2 SLP178 T01390078
Loading
Personal Weather Stations






























Interactive Weather Map
Tropical Storm Tracking
New forecast layout! Learn more

10-Day Weather Forecast

Advertisements
Track Severe Weather on mobile